Time;durP1;ratioP1;P1;durP2;ratioP2;P2;SDS_P1;SDS_P2;PMS_P1;PMS_P2;Temp;Humidity;BMP_temperature;BMP_pressure;BME280_temperature;BME280_humidity;BME280_pressure;Samples;Min_cycle;Max_cycle;Signal;HPM_P1;HPM_P2
2023/04/09 00:00:18;;;;;;;12.73;7.13;;;4.90;99.90;;;;;;5070317;28;20648;-77
2023/04/09 00:02:43;;;;;;;10.20;6.00;;;4.90;99.90;;;;;;5069275;28;20477;-80
2023/04/09 00:05:09;;;;;;;13.10;6.87;;;4.90;99.90;;;;;;5069020;28;20221;-77
2023/04/09 00:07:35;;;;;;;12.67;6.00;;;4.90;99.90;;;;;;5084187;28;20203;-78
2023/04/09 00:10:00;;;;;;;15.30;7.80;;;5.00;99.90;;;;;;5067556;28;20173;-78
2023/04/09 00:12:26;;;;;;;11.53;5.87;;;5.00;99.90;;;;;;5068315;28;20194;-77
2023/04/09 00:14:51;;;;;;;13.43;6.87;;;5.00;99.90;;;;;;5072298;28;20452;-80
2023/04/09 00:17:17;;;;;;;12.63;6.23;;;5.10;99.90;;;;;;5068248;28;20178;-77
2023/04/09 00:19:42;;;;;;;13.43;7.47;;;5.00;99.90;;;;;;5082981;28;20259;-84
2023/04/09 00:22:08;;;;;;;14.67;6.50;;;5.00;99.90;;;;;;5092839;28;20189;-84
2023/04/09 00:24:34;;;;;;;15.13;7.63;;;5.00;99.90;;;;;;5092085;28;20192;-82
2023/04/09 00:26:59;;;;;;;13.80;7.03;;;5.00;99.90;;;;;;5085505;28;20188;-76
2023/04/09 00:29:26;;;;;;;13.63;7.20;;;5.10;99.90;;;;;;5074915;28;20181;-79
2023/04/09 00:31:51;;;;;;;13.23;7.27;;;5.10;99.90;;;;;;5074348;28;20232;-77
2023/04/09 00:34:17;;;;;;;10.40;6.30;;;5.10;99.90;;;;;;5072836;28;20419;-77
2023/04/09 00:36:43;;;;;;;10.60;6.33;;;5.10;99.90;;;;;;5073754;28;20180;-80
2023/04/09 00:39:08;;;;;;;15.57;7.07;;;5.10;99.90;;;;;;5075267;28;20184;-79
2023/04/09 00:41:34;;;;;;;15.00;6.83;;;5.10;99.90;;;;;;5075165;28;20188;-77
2023/04/09 00:43:59;;;;;;;10.37;5.90;;;5.10;99.90;;;;;;5075514;28;20265;-77
2023/04/09 00:46:26;;;;;;;29.07;7.47;;;5.10;99.90;;;;;;5075103;28;20177;-77
2023/04/09 00:48:52;;;;;;;21.93;8.30;;;5.10;99.90;;;;;;5077312;28;20192;-78
2023/04/09 00:51:17;;;;;;;26.77;10.07;;;5.10;99.90;;;;;;5074471;28;20843;-76
2023/04/09 00:53:43;;;;;;;16.53;7.97;;;5.10;99.90;;;;;;5076638;28;20988;-76
2023/04/09 00:56:10;;;;;;;13.60;7.47;;;5.10;99.90;;;;;;5080306;28;20230;-76
2023/04/09 00:58:36;;;;;;;19.83;7.30;;;5.10;99.90;;;;;;5100638;28;20229;-83
2023/04/09 01:01:02;;;;;;;13.37;7.50;;;5.10;99.90;;;;;;5093349;28;20431;-84
2023/04/09 01:03:28;;;;;;;16.17;8.97;;;5.20;99.90;;;;;;5096923;28;20275;-84
2023/04/09 01:06:06;;;;;;;16.20;7.10;;;5.10;99.90;;;;;;5112948;28;20242;-84
2023/04/09 01:08:48;;;;;;;15.90;7.47;;;5.10;99.90;;;;;;5111161;28;20419;-82
2023/04/09 01:11:17;;;;;;;19.20;7.93;;;5.10;99.90;;;;;;5087317;28;20422;-77
2023/04/09 01:14:00;;;;;;;11.97;6.53;;;5.10;99.90;;;;;;5073091;28;20473;-77
2023/04/09 01:16:28;;;;;;;15.30;7.70;;;5.10;99.90;;;;;;5073329;28;20415;-76
2023/04/09 01:19:15;;;;;;;13.80;7.57;;;5.10;99.90;;;;;;5073666;28;20423;-76
2023/04/09 01:21:43;;;;;;;12.50;6.93;;;5.10;99.90;;;;;;5073065;28;20450;-75
2023/04/09 01:24:14;;;;;;;13.60;7.70;;;5.10;99.90;;;;;;5075006;28;20454;-78
2023/04/09 01:27:01;;;;;;;14.13;7.97;;;5.10;99.90;;;;;;5089303;28;20419;-77
2023/04/09 01:29:30;;;;;;;21.07;8.37;;;5.10;99.90;;;;;;5073623;28;20495;-76
2023/04/09 01:31:58;;;;;;;16.10;7.70;;;5.10;99.90;;;;;;5070838;28;20463;-76
2023/04/09 01:34:25;;;;;;;19.10;7.40;;;5.10;99.90;;;;;;5073615;28;20514;-80
2023/04/09 01:36:57;;;;;;;16.10;7.50;;;5.10;99.90;;;;;;5074618;28;20427;-78
2023/04/09 01:39:23;;;;;;;12.77;5.93;;;5.10;99.90;;;;;;5072712;28;20568;-77
2023/04/09 01:41:50;;;;;;;16.17;7.90;;;5.20;99.90;;;;;;5072365;28;21018;-77
2023/04/09 01:44:16;;;;;;;13.43;6.47;;;5.20;99.90;;;;;;5073671;28;20273;-78
2023/04/09 01:46:42;;;;;;;12.70;7.07;;;5.20;99.90;;;;;;5071140;28;20529;-77
2023/04/09 01:49:11;;;;;;;9.53;6.13;;;5.20;99.90;;;;;;5089924;28;20412;-78
2023/04/09 01:51:37;;;;;;;13.93;6.80;;;5.20;99.90;;;;;;5099626;28;20201;-79
2023/04/09 01:54:03;;;;;;;12.50;6.03;;;5.10;99.90;;;;;;5074625;28;20938;-76
2023/04/09 01:56:42;;;;;;;13.90;5.90;;;5.20;99.90;;;;;;5073162;28;20449;-76
2023/04/09 01:59:08;;;;;;;13.67;7.37;;;5.10;99.90;;;;;;5074672;28;20173;-80
2023/04/09 02:01:42;;;;;;;10.40;5.83;;;5.10;99.90;;;;;;5072176;28;20860;-75
2023/04/09 02:04:36;;;;;;;13.07;6.70;;;5.10;99.90;;;;;;5073395;28;20177;-76
2023/04/09 02:07:23;;;;;;;10.17;6.03;;;5.10;99.90;;;;;;5073686;28;20522;-76
2023/04/09 02:09:51;;;;;;;14.33;6.23;;;5.10;99.90;;;;;;5069190;28;20480;-76
2023/04/09 02:12:18;;;;;;;10.43;6.60;;;5.20;99.90;;;;;;5073388;28;20931;-78
2023/04/09 02:14:50;;;;;;;11.20;6.10;;;5.10;99.90;;;;;;5073895;28;20451;-76
2023/04/09 02:17:16;;;;;;;12.63;6.83;;;5.10;99.90;;;;;;5072440;28;20981;-76
2023/04/09 02:19:43;;;;;;;17.20;7.40;;;5.10;99.90;;;;;;5068719;28;20503;-77
2023/04/09 02:22:10;;;;;;;11.07;5.83;;;5.20;99.90;;;;;;5071563;28;20609;-80
2023/04/09 02:24:36;;;;;;;14.27;6.70;;;5.10;99.90;;;;;;5068442;28;20459;-77
2023/04/09 02:27:02;;;;;;;10.70;6.47;;;5.10;99.90;;;;;;5070955;28;20821;-79
2023/04/09 02:29:29;;;;;;;10.50;5.97;;;5.10;99.90;;;;;;5071588;28;20185;-77
2023/04/09 02:31:54;;;;;;;11.70;7.30;;;5.10;99.90;;;;;;5071699;28;20451;-79
2023/04/09 02:34:20;;;;;;;10.33;6.20;;;5.10;99.90;;;;;;5071052;28;20438;-77
2023/04/09 02:36:45;;;;;;;17.30;7.93;;;5.10;99.90;;;;;;5069957;28;20185;-79
2023/04/09 02:39:11;;;;;;;13.30;7.30;;;5.00;99.90;;;;;;5069242;28;20792;-76
2023/04/09 02:41:37;;;;;;;12.53;6.93;;;5.00;99.90;;;;;;5069933;28;20688;-77
2023/04/09 02:44:02;;;;;;;15.43;7.07;;;5.00;99.90;;;;;;5070601;28;20196;-77
2023/04/09 02:46:28;;;;;;;11.47;6.07;;;5.00;99.90;;;;;;5070268;28;20188;-78
2023/04/09 02:48:54;;;;;;;14.30;7.03;;;5.00;99.90;;;;;;5070805;28;20188;-76
2023/04/09 02:51:19;;;;;;;12.13;7.30;;;4.90;99.90;;;;;;5069519;28;20178;-74
2023/04/09 02:53:45;;;;;;;14.33;7.10;;;4.90;99.90;;;;;;5069787;28;20560;-76
2023/04/09 02:56:11;;;;;;;14.73;7.20;;;4.90;99.90;;;;;;5071407;28;20181;-80
2023/04/09 02:58:36;;;;;;;12.40;6.87;;;5.00;99.90;;;;;;5069393;28;20216;-78
2023/04/09 03:01:02;;;;;;;12.40;5.83;;;4.90;99.90;;;;;;5068275;28;20442;-76
2023/04/09 03:03:29;;;;;;;11.87;6.90;;;4.80;99.90;;;;;;5065509;28;20209;-76
2023/04/09 03:05:55;;;;;;;12.27;7.23;;;5.00;99.90;;;;;;5084147;28;20463;-77
2023/04/09 03:08:21;;;;;;;10.70;6.97;;;4.90;99.90;;;;;;5067433;28;20442;-78
2023/04/09 03:10:46;;;;;;;10.43;5.77;;;4.90;99.90;;;;;;5068329;28;20246;-77
2023/04/09 03:13:12;;;;;;;18.80;7.37;;;5.00;99.90;;;;;;5067202;28;20220;-77
2023/04/09 03:15:37;;;;;;;10.47;6.03;;;4.90;99.90;;;;;;5068395;28;20203;-78
2023/04/09 03:18:03;;;;;;;12.63;6.30;;;4.90;99.90;;;;;;5065684;28;20212;-75
2023/04/09 03:20:30;;;;;;;12.47;6.60;;;4.90;99.90;;;;;;5067583;28;20284;-75
2023/04/09 03:22:55;;;;;;;16.97;5.97;;;4.90;99.90;;;;;;5066987;28;20209;-75
2023/04/09 03:25:21;;;;;;;15.60;7.37;;;4.80;99.90;;;;;;5067548;28;20520;-75
2023/04/09 03:27:46;;;;;;;17.40;7.20;;;4.80;99.90;;;;;;5065812;28;20247;-75
2023/04/09 03:30:12;;;;;;;15.03;6.90;;;4.80;99.90;;;;;;5068525;28;20197;-77
2023/04/09 03:32:38;;;;;;;14.27;7.13;;;4.80;99.90;;;;;;5068018;28;20566;-76
2023/04/09 03:35:04;;;;;;;15.80;8.10;;;4.80;99.90;;;;;;5068308;28;20268;-75
2023/04/09 03:37:29;;;;;;;14.53;7.10;;;4.80;99.90;;;;;;5067440;28;20268;-75
2023/04/09 03:39:55;;;;;;;14.97;7.27;;;4.80;99.90;;;;;;5068123;28;20945;-75
2023/04/09 03:42:20;;;;;;;12.17;6.80;;;4.80;99.90;;;;;;5071683;28;20201;-78
2023/04/09 03:44:46;;;;;;;11.03;6.13;;;4.80;99.90;;;;;;5072538;28;20201;-75
2023/04/09 03:47:12;;;;;;;6.80;4.57;;;4.70;99.90;;;;;;5068323;28;20185;-75
2023/04/09 03:49:37;;;;;;;12.87;6.53;;;4.70;99.90;;;;;;5067818;28;20165;-75
2023/04/09 03:52:04;;;;;;;12.10;6.83;;;4.60;99.90;;;;;;5067131;28;20254;-79
2023/04/09 03:54:30;;;;;;;14.93;7.10;;;4.60;99.90;;;;;;5083496;28;20222;-76
2023/04/09 03:56:56;;;;;;;14.37;7.50;;;4.60;99.90;;;;;;5066754;28;20423;-77
2023/04/09 03:59:22;;;;;;;15.10;8.30;;;4.60;99.90;;;;;;5064592;28;20177;-75
2023/04/09 04:01:48;;;;;;;12.73;6.53;;;4.50;99.90;;;;;;5068481;28;20205;-75
2023/04/09 04:04:13;;;;;;;13.67;7.33;;;4.50;99.90;;;;;;5069629;28;20420;-78
2023/04/09 04:06:39;;;;;;;15.60;8.00;;;4.50;99.90;;;;;;5071124;28;20207;-76
2023/04/09 04:09:05;;;;;;;14.37;6.70;;;4.50;99.90;;;;;;5086045;28;20636;-76
2023/04/09 04:11:30;;;;;;;20.70;8.83;;;4.60;99.90;;;;;;5070389;28;20273;-77
2023/04/09 04:13:56;;;;;;;15.03;7.33;;;4.70;99.90;;;;;;5072564;28;20211;-75
2023/04/09 04:16:22;;;;;;;16.80;8.67;;;4.60;99.90;;;;;;5072768;28;20172;-76
2023/04/09 04:18:47;;;;;;;15.70;7.47;;;4.60;99.90;;;;;;5070209;28;20180;-78
2023/04/09 04:21:13;;;;;;;14.03;8.60;;;4.50;99.90;;;;;;5069733;28;20185;-75
2023/04/09 04:23:39;;;;;;;10.47;5.50;;;4.60;99.90;;;;;;5085081;28;20201;-77
2023/04/09 04:26:09;;;;;;;16.20;8.50;;;4.60;99.90;;;;;;5070143;28;20457;-75
2023/04/09 04:28:36;;;;;;;21.43;6.80;;;4.60;99.90;;;;;;5072038;28;20169;-76
2023/04/09 04:31:01;;;;;;;19.67;8.00;;;4.60;99.90;;;;;;5070601;28;20439;-76
2023/04/09 04:33:27;;;;;;;11.60;7.53;;;4.60;99.90;;;;;;5086019;28;20446;-76
2023/04/09 04:35:53;;;;;;;13.23;7.47;;;4.60;99.90;;;;;;5068241;28;20184;-78
2023/04/09 04:38:18;;;;;;;14.20;6.73;;;4.60;99.90;;;;;;5067151;28;20180;-77
2023/04/09 04:40:44;;;;;;;12.93;6.43;;;4.50;99.90;;;;;;5067533;28;20534;-75
2023/04/09 04:43:09;;;;;;;11.50;7.17;;;4.50;99.90;;;;;;5069957;28;20254;-78
2023/04/09 04:45:35;;;;;;;14.77;7.50;;;4.50;99.90;;;;;;5082773;28;20572;-76
2023/04/09 04:48:01;;;;;;;18.67;7.83;;;4.50;99.90;;;;;;5069228;28;20466;-79
2023/04/09 04:50:26;;;;;;;11.00;7.27;;;4.50;99.90;;;;;;5067536;28;20905;-78
2023/04/09 04:52:52;;;;;;;12.83;6.03;;;4.50;99.90;;;;;;5084108;28;20201;-78
2023/04/09 04:55:18;;;;;;;13.47;6.80;;;4.50;99.90;;;;;;5071201;28;20206;-76
2023/04/09 04:57:43;;;;;;;16.37;7.70;;;4.50;99.90;;;;;;5070101;28;20498;-76
2023/04/09 05:00:09;;;;;;;12.63;7.60;;;4.50;99.90;;;;;;5087445;28;20181;-76
2023/04/09 05:02:35;;;;;;;15.97;8.73;;;4.50;99.90;;;;;;5070895;28;20220;-75
2023/04/09 05:05:01;;;;;;;14.17;7.97;;;4.60;99.90;;;;;;5070096;28;20478;-76
2023/04/09 05:07:26;;;;;;;12.07;6.70;;;4.60;99.90;;;;;;5070482;28;20620;-79
2023/04/09 05:09:52;;;;;;;15.03;8.53;;;4.60;99.90;;;;;;5068735;28;20182;-76
2023/04/09 05:12:18;;;;;;;15.40;6.80;;;4.60;99.90;;;;;;5068668;28;20193;-76
2023/04/09 05:14:43;;;;;;;13.00;7.43;;;4.60;99.90;;;;;;5070883;28;20181;-76
2023/04/09 05:17:09;;;;;;;15.17;8.30;;;4.70;99.90;;;;;;5072423;28;20169;-76
2023/04/09 05:19:34;;;;;;;13.73;6.73;;;4.70;99.90;;;;;;5071885;28;20177;-76
2023/04/09 05:22:00;;;;;;;13.77;7.60;;;4.70;99.90;;;;;;5073893;28;20209;-76
2023/04/09 05:24:26;;;;;;;15.00;7.30;;;4.70;99.90;;;;;;5074259;28;20240;-76
2023/04/09 05:26:51;;;;;;;13.83;7.40;;;4.70;99.90;;;;;;5074158;28;20279;-76
2023/04/09 05:29:17;;;;;;;17.03;8.47;;;4.80;99.90;;;;;;5072283;28;20189;-76
2023/04/09 05:31:42;;;;;;;15.97;8.47;;;4.80;99.90;;;;;;5079687;28;20223;-77
2023/04/09 05:34:08;;;;;;;66.67;25.10;;;4.80;99.90;;;;;;5086360;28;20177;-76
2023/04/09 05:36:33;;;;;;;123.37;44.00;;;4.80;99.90;;;;;;5067665;28;20264;-79
2023/04/09 05:38:59;;;;;;;125.00;41.73;;;4.80;99.90;;;;;;5068313;28;20185;-77
2023/04/09 05:41:25;;;;;;;102.33;33.63;;;4.80;99.90;;;;;;5066852;28;20173;-77
2023/04/09 05:43:50;;;;;;;40.80;17.27;;;4.90;99.90;;;;;;5065537;28;20223;-77
2023/04/09 05:46:16;;;;;;;43.63;16.27;;;4.80;99.90;;;;;;5067456;28;20235;-79
2023/04/09 05:48:41;;;;;;;35.27;16.50;;;4.80;99.90;;;;;;5068615;28;20188;-76
2023/04/09 05:51:08;;;;;;;40.60;17.60;;;5.00;99.90;;;;;;5066207;28;20667;-78
2023/04/09 05:53:34;;;;;;;37.80;17.23;;;4.90;99.90;;;;;;5064064;28;20589;-76
2023/04/09 05:56:00;;;;;;;41.20;15.00;;;5.00;99.90;;;;;;5067938;28;20439;-73
2023/04/09 05:58:27;;;;;;;20.23;9.63;;;5.00;99.90;;;;;;5069371;28;20623;-76
2023/04/09 06:00:53;;;;;;;21.47;8.97;;;5.10;99.90;;;;;;5068455;28;20193;-76
2023/04/09 06:03:19;;;;;;;16.50;8.30;;;5.10;99.90;;;;;;5068553;28;20449;-75
2023/04/09 06:05:45;;;;;;;17.93;8.40;;;5.10;99.90;;;;;;5070785;28;20215;-76
2023/04/09 06:08:11;;;;;;;15.43;8.67;;;5.20;99.90;;;;;;5070905;28;20179;-76
2023/04/09 06:10:37;;;;;;;16.57;8.80;;;5.20;99.90;;;;;;5070785;28;20891;-77
2023/04/09 06:13:03;;;;;;;19.87;8.70;;;5.30;99.90;;;;;;5067762;28;20443;-76
2023/04/09 06:15:28;;;;;;;15.20;9.07;;;5.30;99.90;;;;;;5069497;28;20204;-77
2023/04/09 06:17:54;;;;;;;17.80;8.87;;;5.40;99.90;;;;;;5070030;28;20181;-76
2023/04/09 06:20:20;;;;;;;18.93;8.20;;;5.50;99.90;;;;;;5070169;28;20188;-76
2023/04/09 06:22:45;;;;;;;18.30;9.20;;;5.60;99.90;;;;;;5068787;28;20275;-79
2023/04/09 06:25:11;;;;;;;17.13;9.13;;;5.70;99.90;;;;;;5069399;28;20845;-76
2023/04/09 06:27:37;;;;;;;22.97;9.70;;;5.70;99.90;;;;;;5085927;28;20215;-78
2023/04/09 06:30:02;;;;;;;21.80;11.27;;;5.80;99.90;;;;;;5070892;28;20192;-78
2023/04/09 06:32:28;;;;;;;20.53;9.97;;;5.80;99.90;;;;;;5068906;28;20319;-77
2023/04/09 06:34:54;;;;;;;17.03;9.47;;;5.80;99.90;;;;;;5072207;28;20185;-75
2023/04/09 06:37:20;;;;;;;17.40;8.33;;;5.90;99.90;;;;;;5070955;28;20551;-76
2023/04/09 06:39:45;;;;;;;22.63;9.60;;;6.00;99.90;;;;;;5088488;28;20177;-76
2023/04/09 06:42:11;;;;;;;21.90;10.10;;;6.10;99.90;;;;;;5072780;28;20205;-77
2023/04/09 06:44:36;;;;;;;21.40;10.90;;;6.30;99.90;;;;;;5075623;28;20686;-81
2023/04/09 06:47:02;;;;;;;29.60;10.70;;;6.30;99.90;;;;;;5076847;28;20185;-76
2023/04/09 06:49:27;;;;;;;16.70;8.40;;;6.50;99.90;;;;;;5086671;28;20165;-84
2023/04/09 06:51:53;;;;;;;22.90;10.77;;;6.60;99.90;;;;;;5092473;28;20209;-83
2023/04/09 06:54:19;;;;;;;16.90;8.20;;;6.80;99.90;;;;;;5095693;28;20172;-84
2023/04/09 06:56:45;;;;;;;22.30;9.33;;;6.80;99.90;;;;;;5112779;28;20166;-82
2023/04/09 06:59:11;;;;;;;15.67;8.00;;;6.80;99.90;;;;;;5093486;28;20441;-83
2023/04/09 07:01:37;;;;;;;14.90;7.87;;;6.90;99.90;;;;;;5094287;28;20205;-76
2023/04/09 07:04:03;;;;;;;13.80;6.83;;;7.10;99.90;;;;;;5084474;28;20727;-77
2023/04/09 07:06:28;;;;;;;12.83;6.90;;;7.20;99.90;;;;;;5066424;28;20500;-77
2023/04/09 07:08:54;;;;;;;15.00;7.40;;;7.40;99.90;;;;;;5068675;28;20514;-76
2023/04/09 07:11:20;;;;;;;14.60;7.10;;;7.50;99.90;;;;;;5083619;28;20179;-77
2023/04/09 07:13:46;;;;;;;14.60;6.43;;;7.70;99.90;;;;;;5067828;28;20184;-77
2023/04/09 07:16:11;;;;;;;12.10;6.70;;;7.90;99.90;;;;;;5067064;28;20755;-76
2023/04/09 07:18:37;;;;;;;17.50;7.87;;;8.00;99.90;;;;;;5068636;28;20184;-77
2023/04/09 07:21:02;;;;;;;21.40;8.00;;;7.80;99.90;;;;;;5068606;28;20619;-77
2023/04/09 07:23:28;;;;;;;14.17;7.23;;;7.70;99.90;;;;;;5065717;28;20207;-76
2023/04/09 07:25:53;;;;;;;11.00;6.70;;;7.70;99.90;;;;;;5067838;28;20213;-79
2023/04/09 07:28:19;;;;;;;10.73;5.47;;;7.70;99.90;;;;;;5067146;28;20242;-76
2023/04/09 07:30:45;;;;;;;7.80;5.73;;;7.70;99.90;;;;;;5083476;28;20236;-77
2023/04/09 07:33:11;;;;;;;10.83;5.30;;;7.80;99.90;;;;;;5067111;28;20735;-76
2023/04/09 07:35:37;;;;;;;7.37;4.50;;;8.70;99.90;;;;;;5082973;28;20531;-80
2023/04/09 07:38:02;;;;;;;11.03;5.83;;;9.70;99.90;;;;;;5068155;28;20185;-77
2023/04/09 07:40:28;;;;;;;13.57;4.90;;;11.30;99.90;;;;;;5064832;28;20268;-76
2023/04/09 07:42:54;;;;;;;8.70;5.07;;;11.80;97.30;;;;;;5065748;28;20293;-77
2023/04/09 07:45:20;;;;;;;12.17;5.77;;;11.20;98.50;;;;;;5067784;28;20262;-76
2023/04/09 07:47:46;;;;;;;8.63;4.67;;;11.70;97.50;;;;;;5067937;28;20415;-76
2023/04/09 07:50:11;;;;;;;7.50;4.83;;;11.10;97.70;;;;;;5065667;28;20197;-79
2023/04/09 07:52:37;;;;;;;10.00;5.47;;;10.90;97.20;;;;;;5067181;28;20201;-76
2023/04/09 07:55:03;;;;;;;9.10;4.77;;;10.40;98.20;;;;;;5067429;28;20212;-78
2023/04/09 07:57:32;;;;;;;10.87;5.60;;;10.10;98.30;;;;;;5069977;28;20307;-76
2023/04/09 07:59:58;;;;;;;6.07;3.93;;;10.10;98.20;;;;;;5066719;28;20435;-76
2023/04/09 08:02:23;;;;;;;6.13;3.97;;;10.00;97.50;;;;;;5067803;28;20447;-76
2023/04/09 08:04:49;;;;;;;6.07;2.97;;;10.80;95.90;;;;;;5066594;28;20245;-77
2023/04/09 08:07:15;;;;;;;6.60;4.43;;;11.70;94.70;;;;;;5066616;28;20238;-77
2023/04/09 08:09:41;;;;;;;8.33;4.00;;;12.90;93.10;;;;;;5064903;28;20416;-79
2023/04/09 08:12:06;;;;;;;9.97;4.40;;;13.80;91.40;;;;;;5068500;28;20209;-78
2023/04/09 08:14:32;;;;;;;7.57;3.43;;;13.60;91.30;;;;;;5070092;28;20177;-77
2023/04/09 08:17:00;;;;;;;5.67;3.53;;;14.30;90.20;;;;;;5072169;28;20185;-77
2023/04/09 08:19:25;;;;;;;6.83;4.30;;;15.00;85.90;;;;;;5070938;28;20181;-77
2023/04/09 08:21:51;;;;;;;8.87;3.90;;;15.10;85.80;;;;;;5069172;28;20439;-76
2023/04/09 08:24:17;;;;;;;9.40;3.70;;;15.50;83.10;;;;;;5070234;28;20177;-79
2023/04/09 08:26:43;;;;;;;5.87;3.43;;;15.70;77.80;;;;;;5071309;28;20633;-80
2023/04/09 08:29:11;;;;;;;8.23;3.90;;;15.50;80.10;;;;;;5069366;28;20510;-79
2023/04/09 08:31:37;;;;;;;5.93;2.90;;;15.90;81.10;;;;;;5068673;28;20447;-77
2023/04/09 08:34:03;;;;;;;7.80;2.63;;;15.60;78.30;;;;;;5066905;28;20993;-78
2023/04/09 08:36:31;;;;;;;6.20;3.17;;;14.50;81.10;;;;;;5067276;28;20235;-78
2023/04/09 08:38:57;;;;;;;8.90;3.90;;;13.10;85.80;;;;;;5065431;28;20493;-78
2023/04/09 08:41:24;;;;;;;6.53;3.30;;;12.00;88.00;;;;;;5067407;28;20411;-78
2023/04/09 08:43:51;;;;;;;7.00;3.63;;;11.60;90.50;;;;;;5083576;28;20181;-75
2023/04/09 08:46:18;;;;;;;6.53;3.10;;;11.50;86.90;;;;;;5069862;28;20558;-78
2023/04/09 08:48:45;;;;;;;4.23;2.50;;;11.80;87.60;;;;;;5073605;28;20458;-75
2023/04/09 08:51:18;;;;;;;5.13;3.53;;;11.70;85.00;;;;;;5073763;28;20929;-77
2023/04/09 08:53:46;;;;;;;3.50;2.23;;;11.60;88.30;;;;;;5072278;28;20537;-75
2023/04/09 08:56:13;;;;;;;5.90;2.97;;;12.50;86.30;;;;;;5070084;28;20434;-75
2023/04/09 08:58:44;;;;;;;3.97;2.10;;;12.70;80.30;;;;;;5086558;28;20452;-79
2023/04/09 09:01:24;;;;;;;3.47;2.03;;;12.40;79.30;;;;;;5068345;28;20871;-77
2023/04/09 09:04:16;;;;;;;3.67;2.40;;;12.30;81.00;;;;;;5068674;28;20439;-75
2023/04/09 09:06:43;;;;;;;3.20;1.80;;;11.80;80.50;;;;;;5066820;28;21008;-75
2023/04/09 09:09:13;;;;;;;4.80;1.97;;;11.00;81.50;;;;;;5070489;28;20443;-75
2023/04/09 09:11:40;;;;;;;4.23;2.23;;;10.90;82.30;;;;;;5090757;28;20439;-82
2023/04/09 09:14:07;;;;;;;4.87;1.97;;;10.60;83.10;;;;;;5067697;28;20502;-77
2023/04/09 09:16:41;;;;;;;3.10;1.80;;;10.30;85.30;;;;;;5069133;28;20423;-75
2023/04/09 09:19:08;;;;;;;5.50;2.10;;;10.40;82.40;;;;;;5065291;28;20800;-75
2023/04/09 09:21:35;;;;;;;12.07;2.43;;;10.20;85.00;;;;;;5068598;28;20959;-75
2023/04/09 09:24:02;;;;;;;9.80;2.93;;;10.20;85.70;;;;;;5065996;28;20462;-77
2023/04/09 09:26:29;;;;;;;5.17;2.80;;;10.20;87.20;;;;;;5065658;28;20841;-75
2023/04/09 09:28:59;;;;;;;4.70;2.83;;;10.40;87.80;;;;;;5067252;28;20990;-75
2023/04/09 09:31:25;;;;;;;5.27;2.80;;;10.60;87.30;;;;;;5068607;28;20650;-75
2023/04/09 09:33:51;;;;;;;7.90;2.50;;;10.50;85.10;;;;;;5084007;28;20954;-77
2023/04/09 09:36:33;;;;;;;3.93;2.70;;;10.50;85.90;;;;;;5068450;28;20434;-75
2023/04/09 09:39:08;;;;;;;7.93;2.53;;;10.50;84.90;;;;;;5064976;28;20266;-76
2023/04/09 09:41:34;;;;;;;4.70;2.13;;;10.50;86.50;;;;;;5067145;28;20521;-75
2023/04/09 09:44:00;;;;;;;6.00;2.93;;;10.50;86.80;;;;;;5067727;28;20573;-75
2023/04/09 09:46:27;;;;;;;4.63;2.60;;;10.90;86.70;;;;;;5065879;28;20466;-75
2023/04/09 09:48:52;;;;;;;3.27;2.10;;;10.80;86.20;;;;;;5067518;28;20861;-75
2023/04/09 09:51:21;;;;;;;5.20;3.00;;;10.60;84.90;;;;;;5068390;28;20733;-75
2023/04/09 09:53:52;;;;;;;3.73;1.57;;;10.90;86.10;;;;;;5065522;28;20536;-78
2023/04/09 09:56:21;;;;;;;4.67;2.43;;;10.90;85.60;;;;;;5065287;28;20427;-77
2023/04/09 09:59:08;;;;;;;4.70;2.33;;;11.20;83.80;;;;;;5067458;28;20438;-76
2023/04/09 10:01:36;;;;;;;10.53;2.90;;;11.20;81.90;;;;;;5069070;28;20482;-76
2023/04/09 10:04:05;;;;;;;5.77;2.50;;;11.00;82.20;;;;;;5067438;28;20766;-76
2023/04/09 10:06:33;;;;;;;6.53;3.07;;;10.90;84.40;;;;;;5064683;28;21027;-75
2023/04/09 10:09:03;;;;;;;3.60;2.27;;;10.50;84.20;;;;;;5068465;28;20428;-76
2023/04/09 10:11:32;;;;;;;3.93;2.33;;;10.40;83.70;;;;;;5068363;28;20981;-76
2023/04/09 10:13:59;;;;;;;3.30;1.63;;;10.20;84.20;;;;;;5067636;28;20434;-75
2023/04/09 10:16:26;;;;;;;4.23;2.53;;;10.40;84.40;;;;;;5069126;28;20431;-76
2023/04/09 10:18:56;;;;;;;3.73;2.20;;;10.40;84.10;;;;;;5066797;28;20427;-75
2023/04/09 10:21:47;;;;;;;7.40;2.60;;;10.50;85.70;;;;;;5064508;28;20476;-75
2023/04/09 10:24:14;;;;;;;5.30;2.27;;;10.50;82.40;;;;;;5065276;28;20502;-75
2023/04/09 10:26:41;;;;;;;4.73;2.50;;;10.20;84.00;;;;;;5065899;28;20506;-77
2023/04/09 10:29:10;;;;;;;7.60;3.30;;;10.30;84.30;;;;;;5065982;28;20427;-75
2023/04/09 10:31:54;;;;;;;4.27;2.57;;;10.10;84.00;;;;;;5065351;28;20462;-73
2023/04/09 10:34:22;;;;;;;3.60;2.40;;;10.20;87.00;;;;;;5063884;28;20445;-75
2023/04/09 10:36:54;;;;;;;8.70;3.50;;;10.30;87.00;;;;;;5065183;28;20522;-78
2023/04/09 10:39:19;;;;;;;4.43;2.17;;;10.40;86.70;;;;;;5062790;28;20802;-76
2023/04/09 10:41:48;;;;;;;4.43;2.00;;;10.60;86.50;;;;;;5066310;28;20850;-76
2023/04/09 10:44:25;;;;;;;4.47;2.37;;;10.80;86.20;;;;;;5065298;28;20641;-75
2023/04/09 10:46:55;;;;;;;3.73;2.20;;;10.70;80.50;;;;;;5065108;28;20526;-77
2023/04/09 10:49:22;;;;;;;6.50;3.50;;;10.60;82.10;;;;;;5081876;28;20624;-73
2023/04/09 10:51:51;;;;;;;7.23;3.00;;;10.40;81.70;;;;;;5082874;28;20462;-76
2023/04/09 10:54:32;;;;;;;5.27;2.27;;;10.60;82.30;;;;;;5080921;28;20473;-75
2023/04/09 10:57:07;;;;;;;3.57;2.30;;;10.90;82.00;;;;;;5066213;28;20443;-75
2023/04/09 10:59:39;;;;;;;3.77;2.30;;;10.80;80.30;;;;;;5071282;28;20422;-76
2023/04/09 11:02:07;;;;;;;4.03;2.33;;;10.90;80.20;;;;;;5060992;28;20530;-76
2023/04/09 11:05:17;;;;;;;5.53;2.37;;;11.00;79.90;;;;;;5066587;28;20518;-75
2023/04/09 11:08:05;;;;;;;3.67;2.30;;;11.40;78.80;;;;;;5060374;28;20481;-75
2023/04/09 11:10:32;;;;;;;6.50;2.17;;;11.60;79.30;;;;;;5060092;28;20435;-75
2023/04/09 11:12:58;;;;;;;4.73;1.90;;;11.50;77.70;;;;;;5065223;28;20439;-74
2023/04/09 11:15:23;;;;;;;3.70;1.20;;;11.20;75.70;;;;;;5065662;28;20681;-75
2023/04/09 11:17:49;;;;;;;2.30;1.63;;;11.00;74.50;;;;;;5083152;28;20271;-74
2023/04/09 11:20:18;;;;;;;3.73;1.80;;;11.00;75.20;;;;;;5082573;28;20178;-76
2023/04/09 11:22:44;;;;;;;4.37;2.20;;;11.10;76.40;;;;;;5065986;28;20294;-74
2023/04/09 11:25:09;;;;;;;5.63;2.60;;;11.00;77.10;;;;;;5086233;28;20463;-78
2023/04/09 11:27:43;;;;;;;5.00;3.00;;;11.20;78.10;;;;;;5066763;28;20188;-75
2023/04/09 11:30:09;;;;;;;4.83;2.53;;;11.20;81.20;;;;;;5065839;28;20637;-75
2023/04/09 11:32:35;;;;;;;5.03;2.70;;;11.10;79.80;;;;;;5083049;28;20459;-76
2023/04/09 11:35:00;;;;;;;4.80;2.23;;;11.00;79.80;;;;;;5067912;28;20430;-77
2023/04/09 11:37:26;;;;;;;5.37;2.70;;;11.30;79.50;;;;;;5066803;28;20192;-77
2023/04/09 11:39:53;;;;;;;3.70;2.20;;;11.30;79.70;;;;;;5067685;28;20219;-78
2023/04/09 11:42:20;;;;;;;4.43;2.30;;;11.30;80.00;;;;;;5063644;28;20200;-77
2023/04/09 11:44:48;;;;;;;4.80;3.30;;;11.30;78.80;;;;;;5082305;28;20471;-77
2023/04/09 11:47:16;;;;;;;4.20;2.30;;;11.50;79.40;;;;;;5065268;28;20486;-76
2023/04/09 11:49:42;;;;;;;5.07;3.10;;;11.60;77.50;;;;;;5067108;28;20420;-80
2023/04/09 11:52:09;;;;;;;5.23;2.50;;;11.70;78.30;;;;;;5077168;28;20835;-76
2023/04/09 11:54:35;;;;;;;7.30;2.93;;;12.00;76.40;;;;;;5059967;28;20446;-77
2023/04/09 11:57:03;;;;;;;6.43;2.17;;;12.50;76.60;;;;;;5064371;28;20427;-77
2023/04/09 11:59:29;;;;;;;5.97;2.63;;;12.90;76.90;;;;;;5065002;28;20185;-77
2023/04/09 12:01:57;;;;;;;5.37;2.63;;;12.60;72.30;;;;;;5063371;28;20836;-77
2023/04/09 12:04:23;;;;;;;4.60;2.20;;;12.30;74.50;;;;;;5062851;28;20431;-77
2023/04/09 12:06:49;;;;;;;8.10;2.90;;;12.50;75.40;;;;;;5065012;28;20435;-79
2023/04/09 12:09:15;;;;;;;3.17;2.13;;;12.40;75.40;;;;;;5064262;28;20190;-79
2023/04/09 12:11:44;;;;;;;5.37;2.63;;;12.50;75.00;;;;;;5062861;28;20232;-76
2023/04/09 12:14:15;;;;;;;5.43;2.17;;;12.40;77.00;;;;;;5062985;28;20964;-76
2023/04/09 12:16:42;;;;;;;4.70;2.03;;;12.30;76.00;;;;;;5081940;28;20434;-76
2023/04/09 12:19:10;;;;;;;4.63;2.73;;;12.20;75.80;;;;;;5061098;28;20910;-76
2023/04/09 12:21:46;;;;;;;4.17;2.60;;;12.20;76.30;;;;;;5068615;28;20412;-77
2023/04/09 12:24:13;;;;;;;4.50;2.60;;;12.50;75.70;;;;;;5073963;28;20427;-83
2023/04/09 12:26:38;;;;;;;4.80;2.53;;;12.60;75.10;;;;;;5092434;28;20519;-81
2023/04/09 12:29:04;;;;;;;5.30;3.03;;;12.30;75.50;;;;;;5092671;28;20505;-76
2023/04/09 12:31:29;;;;;;;4.13;2.20;;;11.90;76.30;;;;;;5070470;28;20230;-76
2023/04/09 12:33:55;;;;;;;4.47;2.60;;;11.90;76.70;;;;;;5073726;28;20182;-76
2023/04/09 12:36:22;;;;;;;5.60;2.43;;;11.60;76.60;;;;;;5077723;28;20249;-78
2023/04/09 12:38:48;;;;;;;4.70;2.67;;;11.60;77.50;;;;;;5111804;28;20237;-82
2023/04/09 12:41:14;;;;;;;4.17;2.23;;;11.80;75.40;;;;;;5097519;28;20461;-83
2023/04/09 12:43:42;;;;;;;5.83;2.70;;;12.10;74.60;;;;;;5093593;28;20189;-82
2023/04/09 12:46:07;;;;;;;4.20;2.60;;;12.50;74.40;;;;;;5095935;28;20447;-83